createdAt,value
2022-10-17T00:00:49.011Z,80.39
2022-10-17T00:03:39.591Z,80.23
2022-10-17T00:06:14.835Z,80.32
2022-10-17T00:08:45.583Z,80.71
2022-10-17T00:11:20.114Z,80.55
2022-10-17T00:13:55.289Z,80.84
2022-10-17T00:16:29.691Z,80.68
2022-10-17T00:19:01.676Z,81.13
2022-10-17T00:21:34.268Z,81.36
2022-10-17T00:24:07.005Z,81.08
2022-10-17T00:26:39.073Z,81.11
2022-10-17T00:29:11.516Z,81.29
2022-10-17T00:31:43.599Z,81.51
2022-10-17T00:34:15.682Z,81.50
2022-10-17T00:36:47.559Z,81.66
2022-10-17T00:39:19.434Z,81.37
2022-10-17T00:41:51.538Z,81.59
2022-10-17T00:44:55.451Z,81.21
2022-10-17T00:47:28.069Z,80.92
2022-10-17T00:52:37.948Z,80.80
2022-10-17T00:55:16.558Z,80.41
2022-10-17T00:57:50.075Z,80.55
2022-10-17T01:00:25.111Z,80.50
2022-10-17T01:02:57.116Z,80.20
2022-10-17T01:05:29.366Z,79.94
2022-10-17T01:08:01.671Z,79.63
2022-10-17T01:10:40.824Z,79.78
2022-10-17T01:13:20.019Z,80.37
2022-10-17T01:16:03.955Z,80.52
2022-10-17T01:18:48.528Z,81.11
2022-10-17T01:21:34.999Z,81.82
2022-10-17T01:24:50.510Z,82.54
2022-10-17T01:27:50.712Z,82.74
2022-10-17T01:30:34.826Z,82.64
2022-10-17T01:33:12.084Z,82.63
2022-10-17T01:35:51.222Z,82.58
2022-10-17T01:38:26.520Z,82.43
2022-10-17T01:41:04.772Z,82.95
2022-10-17T01:43:43.343Z,82.80
2022-10-17T01:46:23.978Z,82.97
2022-10-17T01:48:58.135Z,82.55
2022-10-17T01:51:37.243Z,82.62
2022-10-17T01:54:17.943Z,82.31
2022-10-17T01:56:52.936Z,82.07
2022-10-17T01:59:29.027Z,81.75
2022-10-17T02:02:02.851Z,82.02
2022-10-17T02:04:35.737Z,81.75
2022-10-17T02:07:14.442Z,81.77
2022-10-17T02:09:46.985Z,82.02
2022-10-17T02:12:46.067Z,81.74
2022-10-17T02:15:37.281Z,82.00
2022-10-17T02:18:24.697Z,82.15
2022-10-17T02:21:02.151Z,82.21
2022-10-17T02:23:41.767Z,82.32
2022-10-17T02:26:20.745Z,82.60
2022-10-17T02:28:59.688Z,82.98
2022-10-17T02:31:37.653Z,83.28
2022-10-17T02:34:16.507Z,83.27
2022-10-17T02:36:55.075Z,82.96
2022-10-17T02:39:26.432Z,82.47
2022-10-17T02:42:01.609Z,82.45
2022-10-17T02:44:35.223Z,82.29
2022-10-17T02:47:14.238Z,82.15
2022-10-17T02:49:50.989Z,81.98
2022-10-17T02:52:29.139Z,81.82
2022-10-17T02:55:08.325Z,81.84
2022-10-17T02:57:42.694Z,81.80
2022-10-17T03:00:17.941Z,81.28
2022-10-17T03:02:53.798Z,81.29
2022-10-17T03:05:28.806Z,80.68
2022-10-17T03:08:00.740Z,79.75
2022-10-17T03:10:32.767Z,79.14
2022-10-17T03:13:04.697Z,78.96
2022-10-17T03:15:46.503Z,78.84
2022-10-17T03:18:19.063Z,78.72
2022-10-17T03:20:51.928Z,78.61
2022-10-17T03:23:23.937Z,78.57
2022-10-17T03:25:57.484Z,78.83
2022-10-17T03:28:29.560Z,78.72
2022-10-17T03:31:07.612Z,78.56
2022-10-17T03:33:41.125Z,78.50
2022-10-17T03:36:16.806Z,78.26
2022-10-17T03:38:49.960Z,79.03
2022-10-17T03:41:22.323Z,79.90
2022-10-17T03:43:55.070Z,80.41
2022-10-17T03:46:27.792Z,80.66
2022-10-17T03:49:00.689Z,79.58
2022-10-17T03:51:33.851Z,79.33
2022-10-17T03:54:08.836Z,79.78
2022-10-17T03:56:41.293Z,80.21
2022-10-17T03:59:17.454Z,80.17
2022-10-17T04:01:55.660Z,79.37
2022-10-17T04:04:27.944Z,79.58
2022-10-17T04:07:00.333Z,79.77
2022-10-17T04:09:32.318Z,79.78
2022-10-17T04:12:11.094Z,79.94
2022-10-17T04:14:43.255Z,79.53
2022-10-17T04:17:19.061Z,79.63
2022-10-17T04:19:53.182Z,79.62
2022-10-17T04:22:31.167Z,79.72
2022-10-17T04:25:03.648Z,80.12
2022-10-17T04:27:40.957Z,79.69
2022-10-17T04:30:14.113Z,80.11
2022-10-17T04:32:46.231Z,79.60
2022-10-17T04:35:23.462Z,79.87
2022-10-17T04:38:02.359Z,79.51
2022-10-17T04:40:35.893Z,79.02
2022-10-17T04:43:08.092Z,78.51
2022-10-17T04:45:43.664Z,78.04
2022-10-17T04:48:18.545Z,77.65
2022-10-17T04:50:56.341Z,77.28
2022-10-17T04:53:51.276Z,77.53
2022-10-17T04:56:26.121Z,77.05
2022-10-17T04:58:59.419Z,76.00
2022-10-17T05:01:31.656Z,76.37
2022-10-17T05:04:04.287Z,76.08
2022-10-17T05:06:37.806Z,76.29
2022-10-17T05:09:33.286Z,76.17
2022-10-17T05:12:09.490Z,76.83
2022-10-17T05:14:46.854Z,76.61
2022-10-17T05:17:20.320Z,77.10
2022-10-17T05:19:52.581Z,77.14
2022-10-17T05:22:24.435Z,77.23
2022-10-17T05:24:56.435Z,76.79
2022-10-17T05:27:29.446Z,78.19
2022-10-17T05:30:02.698Z,78.96
2022-10-17T05:32:35.740Z,78.70
2022-10-17T05:35:08.885Z,78.95
2022-10-17T05:37:43.931Z,78.72
2022-10-17T05:40:16.757Z,78.79
2022-10-17T05:42:51.781Z,78.59
2022-10-17T05:45:24.217Z,78.25
2022-10-17T05:47:56.260Z,78.04
2022-10-17T05:50:28.353Z,78.34
2022-10-17T05:53:14.351Z,78.55
2022-10-17T05:55:58.265Z,78.42
2022-10-17T06:01:51.910Z,78.66
2022-10-17T06:04:24.097Z,79.03
2022-10-17T06:06:57.323Z,79.49
2022-10-17T06:09:29.745Z,79.52
2022-10-17T06:12:02.102Z,79.76
2022-10-17T06:14:34.786Z,79.75
2022-10-17T06:17:12.139Z,79.46
2022-10-17T06:19:47.078Z,80.25
2022-10-17T06:22:20.408Z,80.35
2022-10-17T06:24:53.744Z,80.85
2022-10-17T06:27:25.703Z,81.33
2022-10-17T06:29:57.866Z,81.46
2022-10-17T06:32:30.455Z,81.49
2022-10-17T06:35:02.866Z,81.81
2022-10-17T06:37:37.655Z,82.09
2022-10-17T06:40:17.271Z,82.23
2022-10-17T06:42:50.150Z,82.43
2022-10-17T06:45:30.921Z,82.52
2022-10-17T06:48:19.682Z,82.65
2022-10-17T06:51:13.199Z,83.11
2022-10-17T06:53:59.734Z,83.32
2022-10-17T06:56:38.954Z,83.58
2022-10-17T06:59:26.357Z,83.83
2022-10-17T07:02:05.452Z,84.27
2022-10-17T07:04:37.859Z,84.46
2022-10-17T07:07:09.793Z,85.22
2022-10-17T07:09:42.717Z,85.54
2022-10-17T07:12:15.417Z,85.78
2022-10-17T07:14:50.706Z,86.56
2022-10-17T07:17:22.994Z,87.14
2022-10-17T07:19:55.360Z,87.20
2022-10-17T07:22:27.459Z,87.89
2022-10-17T07:25:00.799Z,87.83
2022-10-17T07:27:36.529Z,87.53
2022-10-17T07:30:12.681Z,87.68
2022-10-17T07:32:48.035Z,88.28
2022-10-17T07:35:20.337Z,88.14
2022-10-17T07:37:53.151Z,88.30
2022-10-17T07:40:26.550Z,88.40
2022-10-17T07:42:58.564Z,88.30
2022-10-17T07:45:31.647Z,88.51
2022-10-17T07:48:03.761Z,88.44
2022-10-17T07:50:36.303Z,88.76
2022-10-17T07:53:08.258Z,89.24
2022-10-17T07:55:41.710Z,89.10
2022-10-17T07:58:14.706Z,89.28
2022-10-17T08:00:48.561Z,89.00
2022-10-17T08:03:20.717Z,89.16
2022-10-17T08:05:52.692Z,88.85
2022-10-17T08:08:24.571Z,89.21
2022-10-17T08:10:57.336Z,88.24
2022-10-17T08:13:29.347Z,87.51
2022-10-17T08:16:03.911Z,86.39
2022-10-17T08:18:34.816Z,86.46
2022-10-17T08:21:08.591Z,86.57
2022-10-17T08:23:41.001Z,86.21
2022-10-17T08:26:13.625Z,85.72
2022-10-17T08:28:45.779Z,85.52
2022-10-17T08:31:19.283Z,85.22
2022-10-17T08:33:52.969Z,83.94
2022-10-17T08:36:25.263Z,83.26
2022-10-17T08:38:57.429Z,83.56
2022-10-17T08:41:42.022Z,83.32
2022-10-17T08:44:24.443Z,82.44
2022-10-17T08:46:59.964Z,81.93
2022-10-17T08:49:40.354Z,81.03
2022-10-17T08:52:21.576Z,80.39
2022-10-17T08:54:53.742Z,80.14
2022-10-17T08:57:25.833Z,79.85
2022-10-17T08:59:57.963Z,79.59
2022-10-17T09:02:44.898Z,79.20
2022-10-17T09:05:47.175Z,78.75
2022-10-17T09:08:32.368Z,78.26
2022-10-17T09:11:11.340Z,77.95
2022-10-17T09:14:09.244Z,77.90
2022-10-17T09:16:59.662Z,77.62
2022-10-17T09:19:36.347Z,76.70
2022-10-17T09:22:14.440Z,76.34
2022-10-17T09:24:51.546Z,75.78
2022-10-17T09:27:27.551Z,75.14
2022-10-17T09:30:40.121Z,75.35
2022-10-17T09:33:28.258Z,74.63
2022-10-17T09:36:11.730Z,73.86
2022-10-17T09:38:45.719Z,74.63
2022-10-17T09:41:43.720Z,73.76
2022-10-17T09:44:18.165Z,73.16
2022-10-17T09:47:00.907Z,72.97
2022-10-17T09:49:35.577Z,72.50
2022-10-17T09:52:12.287Z,72.25
2022-10-17T09:54:47.906Z,71.86
2022-10-17T09:57:21.947Z,71.84
2022-10-17T10:00:02.561Z,71.32
2022-10-17T10:02:40.770Z,70.90
2022-10-17T10:05:21.663Z,70.95
2022-10-17T10:08:05.917Z,70.42
2022-10-17T10:10:37.910Z,70.46
2022-10-17T10:13:20.415Z,69.69
2022-10-17T10:15:54.474Z,69.86
2022-10-17T10:18:36.701Z,68.98
2022-10-17T10:21:12.134Z,68.42
2022-10-17T10:23:45.989Z,67.91
2022-10-17T10:26:27.563Z,67.86
2022-10-17T10:29:02.860Z,67.68
2022-10-17T10:31:38.271Z,67.62
2022-10-17T10:34:20.634Z,67.89
2022-10-17T10:36:59.596Z,67.59
2022-10-17T10:39:37.608Z,67.32
2022-10-17T10:42:22.692Z,67.29
2022-10-17T10:44:53.741Z,66.65
2022-10-17T10:47:28.617Z,66.03
2022-10-17T10:50:25.400Z,65.89
2022-10-17T10:53:09.140Z,65.16
2022-10-17T10:55:49.202Z,64.88
2022-10-17T10:58:36.742Z,65.05
2022-10-17T11:01:18.511Z,64.51
2022-10-17T11:03:58.839Z,64.60
2022-10-17T11:06:34.627Z,63.62
2022-10-17T11:09:21.460Z,63.11
2022-10-17T11:12:00.003Z,63.47
2022-10-17T11:14:40.144Z,63.54
2022-10-17T11:17:20.555Z,62.90
2022-10-17T11:20:03.095Z,63.13
2022-10-17T11:22:38.738Z,62.30
2022-10-17T11:25:23.364Z,61.85
2022-10-17T11:27:55.263Z,61.59
2022-10-17T11:30:33.666Z,61.60
2022-10-17T11:33:07.570Z,61.48
2022-10-17T11:35:42.926Z,60.48
2022-10-17T11:38:21.223Z,60.19
2022-10-17T11:40:57.155Z,59.94
2022-10-17T11:43:33.411Z,59.38
2022-10-17T11:46:19.049Z,59.68
2022-10-17T11:49:03.312Z,59.59
2022-10-17T11:52:03.075Z,59.17
2022-10-17T11:54:40.551Z,58.58
2022-10-17T11:57:33.197Z,58.21
2022-10-17T12:00:22.137Z,58.66
2022-10-17T12:03:06.773Z,59.15
2022-10-17T12:05:47.793Z,58.97
2022-10-17T12:08:31.254Z,58.52
2022-10-17T12:11:12.292Z,58.16
2022-10-17T12:13:53.168Z,57.98
2022-10-17T12:16:44.706Z,57.68
2022-10-17T12:19:32.603Z,56.54
2022-10-17T12:22:26.409Z,56.43
2022-10-17T12:25:02.032Z,56.88
2022-10-17T12:27:51.199Z,56.73
2022-10-17T12:30:28.668Z,56.98
2022-10-17T12:33:22.550Z,56.33
2022-10-17T12:36:48.926Z,56.25
2022-10-17T12:39:52.768Z,55.75
2022-10-17T12:42:50.379Z,55.83
2022-10-17T12:45:53.406Z,56.18
2022-10-17T12:49:02.126Z,55.92
2022-10-17T12:52:18.006Z,56.31
2022-10-17T12:55:00.487Z,56.52
2022-10-17T12:57:45.868Z,56.56
2022-10-17T13:00:23.267Z,57.18
2022-10-17T13:03:03.159Z,56.76
2022-10-17T13:05:38.407Z,56.54
2022-10-17T13:08:19.307Z,56.58
2022-10-17T13:10:53.819Z,57.20
2022-10-17T13:13:37.467Z,57.98
2022-10-17T13:16:10.279Z,58.33
2022-10-17T13:18:42.388Z,58.96
2022-10-17T13:21:18.905Z,58.68
2022-10-17T13:23:53.269Z,59.18
2022-10-17T13:26:27.223Z,59.76
2022-10-17T13:29:11.639Z,59.74
2022-10-17T13:31:45.750Z,59.74
2022-10-17T13:34:21.663Z,59.87
2022-10-17T13:36:56.497Z,59.39
2022-10-17T13:39:45.605Z,59.61
2022-10-17T13:42:24.913Z,59.31
2022-10-17T13:44:58.361Z,59.15
2022-10-17T13:47:33.702Z,59.37
2022-10-17T13:50:26.493Z,59.46
2022-10-17T13:53:31.705Z,59.13
2022-10-17T13:56:26.808Z,59.32
2022-10-17T13:59:01.491Z,59.10
2022-10-17T14:01:34.255Z,58.81
2022-10-17T14:04:14.175Z,59.10
2022-10-17T14:06:52.549Z,58.98
2022-10-17T14:09:28.030Z,59.15
2022-10-17T14:12:03.532Z,59.47
2022-10-17T14:14:57.972Z,59.85
2022-10-17T14:17:31.129Z,60.04
2022-10-17T14:20:34.492Z,60.36
2022-10-17T14:26:08.676Z,61.03
2022-10-17T14:28:41.222Z,61.67
2022-10-17T14:31:26.366Z,61.97
2022-10-17T14:33:59.255Z,61.97
2022-10-17T14:36:38.989Z,62.45
2022-10-17T14:39:21.867Z,62.49
2022-10-17T14:41:54.314Z,63.04
2022-10-17T14:44:30.389Z,63.16
2022-10-17T14:47:24.055Z,63.33
2022-10-17T14:50:26.926Z,63.48
2022-10-17T14:53:08.289Z,63.85
2022-10-17T14:55:42.197Z,64.21
2022-10-17T14:58:25.342Z,64.53
2022-10-17T15:00:57.570Z,64.77
2022-10-17T15:03:29.692Z,65.22
2022-10-17T15:06:16.730Z,65.52
2022-10-17T15:08:48.733Z,65.76
2022-10-17T15:11:20.683Z,66.01
2022-10-17T15:13:52.797Z,66.46
2022-10-17T15:16:27.204Z,66.76
2022-10-17T15:18:59.443Z,66.94
2022-10-17T15:21:39.475Z,67.13
2022-10-17T15:24:15.099Z,67.37
2022-10-17T15:26:47.353Z,67.53
2022-10-17T15:29:19.345Z,67.57
2022-10-17T15:31:51.259Z,67.59
2022-10-17T15:34:23.650Z,67.20
2022-10-17T15:36:56.740Z,67.30
2022-10-17T15:39:28.940Z,67.24
2022-10-17T15:42:00.882Z,67.14
2022-10-17T15:44:33.451Z,67.17
2022-10-17T15:47:05.744Z,67.28
2022-10-17T15:49:37.992Z,67.44
2022-10-17T15:52:11.462Z,67.55
2022-10-17T15:54:43.454Z,67.63
2022-10-17T15:57:20.779Z,67.71
2022-10-17T15:59:53.940Z,67.61
2022-10-17T16:02:26.873Z,67.78
2022-10-17T16:04:58.816Z,67.80
2022-10-17T16:07:31.663Z,68.05
2022-10-17T16:10:04.117Z,68.14
2022-10-17T16:12:41.242Z,68.18
2022-10-17T16:15:16.644Z,68.55
2022-10-17T16:17:49.006Z,68.84
2022-10-17T16:20:21.683Z,68.78
2022-10-17T16:22:59.724Z,68.57
2022-10-17T16:25:33.401Z,68.79
2022-10-17T16:28:06.335Z,68.82
2022-10-17T16:30:46.144Z,69.01
2022-10-17T16:33:18.078Z,69.12
2022-10-17T16:35:50.697Z,69.26
2022-10-17T16:38:23.082Z,69.68
2022-10-17T16:40:55.249Z,69.96
2022-10-17T16:43:27.296Z,69.79
2022-10-17T16:45:59.167Z,69.58
2022-10-17T16:48:31.265Z,69.76
2022-10-17T16:51:04.754Z,69.60
2022-10-17T16:53:40.035Z,69.64
2022-10-17T16:56:14.300Z,69.93
2022-10-17T16:58:47.217Z,69.83
2022-10-17T17:01:23.124Z,70.18
2022-10-17T17:03:56.468Z,70.36
2022-10-17T17:06:30.628Z,70.20
2022-10-17T17:09:03.142Z,70.19
2022-10-17T17:11:35.457Z,70.76
2022-10-17T17:14:08.162Z,71.02
2022-10-17T17:16:40.405Z,70.82
2022-10-17T17:19:16.950Z,71.24
2022-10-17T17:21:50.915Z,71.37
2022-10-17T17:24:24.058Z,71.29
2022-10-17T17:26:57.888Z,71.41
2022-10-17T17:29:29.807Z,71.82
2022-10-17T17:32:02.039Z,71.73
2022-10-17T17:34:38.445Z,71.95
2022-10-17T17:37:10.430Z,72.17
2022-10-17T17:39:42.784Z,72.00
2022-10-17T17:42:15.104Z,72.04
2022-10-17T17:44:49.808Z,72.42
2022-10-17T17:47:21.707Z,72.07
2022-10-17T17:49:53.702Z,72.85
2022-10-17T17:52:25.899Z,73.01
2022-10-17T17:54:58.168Z,73.31
2022-10-17T17:57:31.713Z,73.46
2022-10-17T18:00:03.844Z,73.51
2022-10-17T18:02:40.730Z,73.21
2022-10-17T18:05:16.035Z,73.28
2022-10-17T18:07:48.779Z,73.16
2022-10-17T18:10:21.635Z,73.26
2022-10-17T18:12:53.602Z,72.34
2022-10-17T18:15:25.695Z,72.33
2022-10-17T18:17:57.607Z,71.60
2022-10-17T18:20:30.208Z,71.33
2022-10-17T18:23:04.146Z,71.03
2022-10-17T18:25:36.603Z,71.12
2022-10-17T18:28:09.124Z,71.64
2022-10-17T18:30:41.571Z,71.69
2022-10-17T18:33:13.607Z,72.24
2022-10-17T18:35:46.335Z,72.92
2022-10-17T18:38:18.796Z,73.51
2022-10-17T18:40:51.402Z,74.06
2022-10-17T18:43:23.295Z,74.44
2022-10-17T18:46:03.943Z,74.86
2022-10-17T18:48:37.250Z,74.96
2022-10-17T18:51:10.138Z,75.30
2022-10-17T18:53:44.051Z,75.29
2022-10-17T18:56:16.320Z,75.05
2022-10-17T18:58:48.283Z,74.81
2022-10-17T19:01:23.006Z,74.67
2022-10-17T19:03:57.209Z,75.59
2022-10-17T19:06:32.225Z,75.81
2022-10-17T19:09:06.133Z,75.79
2022-10-17T19:11:39.926Z,75.39
2022-10-17T19:14:14.032Z,75.20
2022-10-17T19:16:49.032Z,75.01
2022-10-17T19:19:24.053Z,75.13
2022-10-17T19:21:56.436Z,75.33
2022-10-17T19:24:29.163Z,75.01
2022-10-17T19:27:02.744Z,75.38
2022-10-17T19:29:35.120Z,75.42
2022-10-17T19:32:14.108Z,75.06
2022-10-17T19:34:48.871Z,75.56
2022-10-17T19:37:20.867Z,75.65
2022-10-17T19:39:53.239Z,75.21
2022-10-17T19:42:25.799Z,74.39
2022-10-17T19:44:57.713Z,74.52
2022-10-17T19:47:30.294Z,74.26
2022-10-17T19:52:40.393Z,74.00
2022-10-17T19:55:14.357Z,73.89
2022-10-17T19:57:46.360Z,73.76
2022-10-17T20:00:18.904Z,73.68
2022-10-17T20:02:50.929Z,73.52
2022-10-17T20:05:27.289Z,73.50
2022-10-17T20:08:00.450Z,73.32
2022-10-17T20:10:32.661Z,73.10
2022-10-17T20:13:05.223Z,72.53
2022-10-17T20:15:37.432Z,72.61
2022-10-17T20:18:11.381Z,72.54
2022-10-17T20:20:43.326Z,72.59
2022-10-17T20:23:15.457Z,72.40
2022-10-17T20:25:50.495Z,72.55
2022-10-17T20:28:29.169Z,72.56
2022-10-17T20:31:05.505Z,72.27
2022-10-17T20:33:37.580Z,72.78
2022-10-17T20:36:11.283Z,72.47
2022-10-17T20:38:43.808Z,72.66
2022-10-17T20:41:15.711Z,72.73
2022-10-17T20:43:48.189Z,71.50
2022-10-17T20:46:36.230Z,71.62
2022-10-17T20:49:11.949Z,71.58
2022-10-17T20:51:44.540Z,71.83
2022-10-17T20:54:17.046Z,71.90
2022-10-17T20:56:48.947Z,71.38
2022-10-17T20:59:21.646Z,71.06
2022-10-17T21:01:55.059Z,71.46
2022-10-17T21:04:45.328Z,71.69
2022-10-17T21:07:18.348Z,71.89
2022-10-17T21:09:50.615Z,71.88
2022-10-17T21:12:42.837Z,71.76
2022-10-17T21:15:15.230Z,71.34
2022-10-17T21:17:47.403Z,71.12
2022-10-17T21:20:19.669Z,71.15
2022-10-17T21:22:52.336Z,70.98
2022-10-17T21:25:24.514Z,71.44
2022-10-17T21:27:56.371Z,71.99
2022-10-17T21:30:28.267Z,72.64
2022-10-17T21:33:00.737Z,72.81
2022-10-17T21:35:32.681Z,72.13
2022-10-17T21:38:04.630Z,72.02
2022-10-17T21:40:36.519Z,71.84
2022-10-17T21:43:08.458Z,71.78
2022-10-17T21:45:40.909Z,72.91
2022-10-17T21:48:13.567Z,73.04
2022-10-17T21:50:46.025Z,73.16
2022-10-17T21:53:17.861Z,72.99
2022-10-17T21:55:49.773Z,73.18
2022-10-17T21:58:22.335Z,73.22
2022-10-17T22:00:54.477Z,73.24
2022-10-17T22:03:26.477Z,73.00
2022-10-17T22:06:07.151Z,73.38
2022-10-17T22:08:51.805Z,73.90
2022-10-17T22:11:27.213Z,74.18
2022-10-17T22:14:01.602Z,75.16
2022-10-17T22:16:34.318Z,75.71
2022-10-17T22:19:08.251Z,75.83
2022-10-17T22:21:40.421Z,75.60
2022-10-17T22:24:15.825Z,75.46
2022-10-17T22:26:48.596Z,75.46
2022-10-17T22:29:20.857Z,75.38
2022-10-17T22:31:53.222Z,75.15
2022-10-17T22:34:25.623Z,74.90
2022-10-17T22:36:57.651Z,75.06
2022-10-17T22:39:29.607Z,75.57
2022-10-17T22:42:01.671Z,75.96
2022-10-17T22:44:33.589Z,75.62
2022-10-17T22:47:05.494Z,75.47
2022-10-17T22:49:37.307Z,75.42
2022-10-17T22:52:09.437Z,75.19
2022-10-17T22:54:41.249Z,74.78
2022-10-17T22:57:14.742Z,74.85
2022-10-17T22:59:46.760Z,74.75
2022-10-17T23:02:18.954Z,74.09
2022-10-17T23:04:51.024Z,73.86
2022-10-17T23:07:22.906Z,73.41
2022-10-17T23:09:55.334Z,73.16
2022-10-17T23:12:27.747Z,72.72
2022-10-17T23:14:59.704Z,73.06
2022-10-17T23:17:32.369Z,72.71
2022-10-17T23:20:04.385Z,71.66
2022-10-17T23:22:36.463Z,72.66
2022-10-17T23:25:10.747Z,73.48
2022-10-17T23:27:43.805Z,73.43
2022-10-17T23:30:16.195Z,74.14
2022-10-17T23:32:48.595Z,73.46
2022-10-17T23:35:20.745Z,73.80
2022-10-17T23:37:52.775Z,74.46
2022-10-17T23:40:25.008Z,74.03
2022-10-17T23:42:56.968Z,73.49
2022-10-17T23:45:32.148Z,73.15
2022-10-17T23:48:06.105Z,72.78
2022-10-17T23:50:37.975Z,73.66
2022-10-17T23:53:09.916Z,73.09
2022-10-17T23:55:41.727Z,72.31
2022-10-17T23:58:14.036Z,72.77
